Time;durP1;ratioP1;P1;durP2;ratioP2;P2;SDS_P1;SDS_P2;PMS_P1;PMS_P2;Temp;Humidity;BMP_temperature;BMP_pressure;BME280_temperature;BME280_humidity;BME280_pressure;Samples;Min_cycle;Max_cycle;Signal;HPM_P1;HPM_P2
2021/03/21 00:01:33;;;;;;;10.73;6.43;;;0.40;62.50;;;;;;5045248;28;20046;-63
2021/03/21 00:03:58;;;;;;;9.82;5.93;;;0.50;63.30;;;;;;5045548;28;20037;-63
2021/03/21 00:06:24;;;;;;;10.48;6.43;;;0.60;64.50;;;;;;5043221;28;20033;-63
2021/03/21 00:08:49;;;;;;;9.90;6.35;;;0.50;62.10;;;;;;5027315;28;20092;-63
2021/03/21 00:11:15;;;;;;;13.38;6.57;;;0.40;62.50;;;;;;5042869;28;20066;-64
2021/03/21 00:13:40;;;;;;;10.95;6.25;;;0.40;64.00;;;;;;5045037;28;20057;-63
2021/03/21 00:16:07;;;;;;;11.27;6.38;;;0.50;63.10;;;;;;5044311;28;20120;-63
2021/03/21 00:18:35;;;;;;;9.57;6.32;;;0.50;62.90;;;;;;5044903;28;20225;-64
2021/03/21 00:21:01;;;;;;;10.10;6.50;;;0.50;64.00;;;;;;5046948;28;20037;-63
2021/03/21 00:23:27;;;;;;;10.23;6.63;;;0.60;63.60;;;;;;5009251;28;20221;-63
2021/03/21 00:25:52;;;;;;;9.40;6.15;;;0.50;62.50;;;;;;5039340;28;20048;-63
2021/03/21 00:28:21;;;;;;;11.93;6.50;;;0.60;62.70;;;;;;5044898;28;20064;-63
2021/03/21 00:30:47;;;;;;;10.27;6.43;;;0.50;61.90;;;;;;5045529;28;20055;-63
2021/03/21 00:33:15;;;;;;;9.95;6.40;;;0.40;63.10;;;;;;5044560;28;20057;-64
2021/03/21 00:35:40;;;;;;;11.40;6.20;;;0.40;63.10;;;;;;5025488;28;20092;-64
2021/03/21 00:38:08;;;;;;;9.93;6.20;;;0.50;62.80;;;;;;5041207;28;20049;-63
2021/03/21 00:40:34;;;;;;;11.23;6.22;;;0.70;62.80;;;;;;5045035;28;20041;-63
2021/03/21 00:43:00;;;;;;;9.38;6.22;;;0.60;62.20;;;;;;5037742;28;20088;-64
2021/03/21 00:45:26;;;;;;;9.60;6.68;;;0.40;62.00;;;;;;5026941;28;20080;-64
2021/03/21 00:47:53;;;;;;;11.05;6.22;;;0.50;62.50;;;;;;5046455;28;20041;-63
2021/03/21 00:50:20;;;;;;;8.15;5.90;;;0.50;63.10;;;;;;5043970;28;20064;-64
2021/03/21 00:52:46;;;;;;;10.18;6.38;;;0.50;63.60;;;;;;5044739;28;20109;-64
2021/03/21 00:55:12;;;;;;;10.48;6.15;;;0.50;62.60;;;;;;5043427;28;20041;-64
2021/03/21 00:57:38;;;;;;;9.07;5.85;;;0.60;64.20;;;;;;5043309;28;20252;-64
2021/03/21 01:00:06;;;;;;;11.52;6.35;;;0.70;63.20;;;;;;5045995;28;20085;-64
2021/03/21 01:02:31;;;;;;;9.20;5.85;;;0.70;62.10;;;;;;5044129;28;20233;-64
2021/03/21 01:04:57;;;;;;;10.38;6.22;;;0.70;62.10;;;;;;5029560;28;20029;-64
2021/03/21 01:07:22;;;;;;;8.82;5.68;;;0.70;61.10;;;;;;5034010;28;20043;-64
2021/03/21 01:09:48;;;;;;;10.27;6.18;;;0.60;61.90;;;;;;5043793;28;20329;-64
2021/03/21 01:12:13;;;;;;;9.60;6.30;;;0.50;61.80;;;;;;5044373;28;20094;-64
2021/03/21 01:14:39;;;;;;;11.82;6.70;;;0.70;61.70;;;;;;5045664;28;20037;-64
2021/03/21 01:17:05;;;;;;;12.30;6.05;;;0.70;61.60;;;;;;5044447;28;20038;-64
2021/03/21 01:19:30;;;;;;;9.70;6.20;;;0.50;61.20;;;;;;5043996;28;20267;-64
2021/03/21 01:21:57;;;;;;;10.35;6.07;;;0.40;61.70;;;;;;5043828;28;20083;-64
2021/03/21 01:24:23;;;;;;;10.90;6.13;;;0.40;61.80;;;;;;5044095;28;20028;-64
2021/03/21 01:26:49;;;;;;;9.82;5.80;;;0.40;61.40;;;;;;5044682;28;20021;-64
2021/03/21 01:29:14;;;;;;;11.50;6.57;;;0.30;61.90;;;;;;5044206;28;20093;-64
2021/03/21 01:31:40;;;;;;;10.80;5.80;;;0.50;63.40;;;;;;5043660;28;20042;-64
2021/03/21 01:34:05;;;;;;;10.27;6.22;;;0.40;62.20;;;;;;5043624;28;20041;-64
2021/03/21 01:36:33;;;;;;;9.55;5.72;;;0.40;62.20;;;;;;5043600;28;20087;-64
2021/03/21 01:39:00;;;;;;;9.57;5.82;;;0.40;61.40;;;;;;5044155;28;20057;-64
2021/03/21 01:41:28;;;;;;;10.02;6.32;;;0.60;62.00;;;;;;5024483;28;20038;-64
2021/03/21 01:43:54;;;;;;;9.73;5.97;;;0.60;61.50;;;;;;5037000;28;20056;-64
2021/03/21 01:46:34;;;;;;;8.88;5.68;;;0.50;61.30;;;;;;5042906;28;20034;-64
2021/03/21 01:49:01;;;;;;;10.57;6.57;;;0.60;62.30;;;;;;5043861;28;20079;-64
2021/03/21 01:51:33;;;;;;;8.70;5.65;;;0.40;62.00;;;;;;5025973;28;20105;-64
2021/03/21 01:54:01;;;;;;;9.70;6.00;;;0.40;61.70;;;;;;5044964;28;20048;-64
2021/03/21 01:56:26;;;;;;;9.77;5.75;;;0.40;62.10;;;;;;5026314;28;20249;-64
2021/03/21 01:59:03;;;;;;;9.40;5.90;;;0.20;62.10;;;;;;5043608;28;20044;-64
2021/03/21 02:01:29;;;;;;;8.75;5.70;;;0.30;62.90;;;;;;5026834;28;20333;-64
2021/03/21 02:03:55;;;;;;;12.40;6.18;;;0.40;62.70;;;;;;5042257;28;20040;-64
2021/03/21 02:06:41;;;;;;;11.32;6.00;;;0.50;61.10;;;;;;5043089;28;20040;-64
2021/03/21 02:09:12;;;;;;;8.85;5.72;;;0.50;61.90;;;;;;5043653;28;20269;-63
2021/03/21 02:12:10;;;;;;;9.05;5.70;;;0.60;61.40;;;;;;5042344;28;20356;-64
2021/03/21 02:14:45;;;;;;;8.52;4.93;;;0.60;61.40;;;;;;5016299;28;20037;-64
2021/03/21 02:17:43;;;;;;;10.38;5.85;;;0.60;61.40;;;;;;5025928;28;20041;-63
2021/03/21 02:20:12;;;;;;;9.18;5.53;;;0.60;60.60;;;;;;5026800;28;20057;-64
2021/03/21 02:23:02;;;;;;;9.60;5.32;;;0.70;61.20;;;;;;5033907;28;20295;-64
2021/03/21 02:26:10;;;;;;;9.07;5.43;;;0.80;61.60;;;;;;5042041;28;20030;-64
2021/03/21 02:28:44;;;;;;;10.10;5.43;;;0.70;61.20;;;;;;5042775;28;20033;-64
2021/03/21 02:31:17;;;;;;;8.90;5.75;;;0.50;61.80;;;;;;5041768;28;20040;-64
2021/03/21 02:33:56;;;;;;;10.30;5.78;;;0.70;61.40;;;;;;5025674;28;20049;-64
2021/03/21 02:36:24;;;;;;;8.25;4.95;;;0.50;61.40;;;;;;5025950;28;20424;-64
2021/03/21 02:38:54;;;;;;;9.23;5.18;;;0.60;61.70;;;;;;5026894;28;20025;-64
2021/03/21 02:41:30;;;;;;;7.93;5.22;;;0.60;61.80;;;;;;5041757;28;20052;-64
2021/03/21 02:43:58;;;;;;;8.10;5.05;;;0.80;61.30;;;;;;5025591;28;20370;-64
2021/03/21 02:46:30;;;;;;;7.28;5.28;;;0.70;61.10;;;;;;5041604;28;20053;-64
2021/03/21 02:49:02;;;;;;;10.18;5.28;;;0.70;61.20;;;;;;5019266;28;20044;-64
2021/03/21 02:51:31;;;;;;;8.85;5.28;;;0.80;61.70;;;;;;5024432;28;20036;-64
2021/03/21 02:54:06;;;;;;;9.13;5.30;;;0.70;60.90;;;;;;5043306;28;20038;-64
2021/03/21 02:56:31;;;;;;;8.10;5.40;;;0.70;61.70;;;;;;5041918;28;20037;-64
2021/03/21 02:59:04;;;;;;;8.20;5.40;;;0.60;60.60;;;;;;5041701;28;20097;-64
2021/03/21 03:01:33;;;;;;;8.23;5.15;;;0.50;60.90;;;;;;5014877;28;20065;-64
2021/03/21 03:04:01;;;;;;;8.60;5.05;;;0.60;61.10;;;;;;5028422;28;20041;-64
2021/03/21 03:06:33;;;;;;;8.95;5.13;;;0.60;61.10;;;;;;5025111;28;20022;-64
2021/03/21 03:09:16;;;;;;;9.23;5.18;;;0.60;61.10;;;;;;5043176;28;20014;-64
2021/03/21 03:11:51;;;;;;;8.15;5.07;;;0.60;61.80;;;;;;5026857;28;20041;-64
2021/03/21 03:14:30;;;;;;;7.82;4.85;;;0.80;61.90;;;;;;5041976;28;20037;-64
2021/03/21 03:17:15;;;;;;;9.05;5.45;;;0.80;60.50;;;;;;5026861;28;20056;-64
2021/03/21 03:20:05;;;;;;;9.02;5.22;;;0.70;60.10;;;;;;5027373;28;20041;-64
2021/03/21 03:22:40;;;;;;;9.38;5.38;;;0.60;61.30;;;;;;5027396;28;20053;-64
2021/03/21 03:25:25;;;;;;;8.60;5.00;;;0.60;61.40;;;;;;5041453;28;20041;-64
2021/03/21 03:28:08;;;;;;;9.15;5.10;;;0.90;61.60;;;;;;5041129;28;20064;-64
2021/03/21 03:30:52;;;;;;;11.75;5.30;;;0.90;60.30;;;;;;5042636;28;20035;-64
2021/03/21 03:33:18;;;;;;;7.97;4.90;;;0.70;61.10;;;;;;5044939;28;20041;-63
2021/03/21 03:35:43;;;;;;;8.63;4.88;;;0.70;61.60;;;;;;5047890;28;20071;-64
2021/03/21 03:38:11;;;;;;;9.70;5.05;;;0.80;60.20;;;;;;5046536;28;20041;-64
2021/03/21 03:40:42;;;;;;;8.65;4.82;;;0.70;60.60;;;;;;5045945;28;20201;-64
2021/03/21 03:43:16;;;;;;;8.25;5.10;;;0.70;60.30;;;;;;5045690;28;20356;-64
2021/03/21 03:46:22;;;;;;;8.50;5.13;;;0.80;60.50;;;;;;5041946;28;20034;-64
2021/03/21 03:49:21;;;;;;;9.63;5.22;;;0.90;60.50;;;;;;5030535;28;20037;-64
2021/03/21 03:52:27;;;;;;;7.78;4.65;;;0.80;60.80;;;;;;5045884;28;20038;-63
2021/03/21 03:55:27;;;;;;;7.90;5.00;;;0.60;60.10;;;;;;5015509;28;20104;-64
2021/03/21 03:57:57;;;;;;;8.50;4.93;;;0.70;60.40;;;;;;5003099;28;20038;-63
2021/03/21 04:00:32;;;;;;;7.63;4.72;;;0.70;60.50;;;;;;5028900;28;20075;-64
2021/03/21 04:03:04;;;;;;;7.65;4.57;;;0.70;60.50;;;;;;5029667;28;20353;-64
2021/03/21 04:05:48;;;;;;;8.55;5.30;;;0.70;61.20;;;;;;5044773;28;20253;-64
2021/03/21 04:08:15;;;;;;;8.25;4.90;;;0.70;60.30;;;;;;5044729;28;20033;-63
2021/03/21 04:10:55;;;;;;;7.80;4.53;;;0.80;60.00;;;;;;5044062;28;20037;-64
2021/03/21 04:13:31;;;;;;;8.57;4.32;;;0.80;60.20;;;;;;5028272;28;20060;-64
2021/03/21 04:15:58;;;;;;;8.25;4.68;;;0.80;61.00;;;;;;5044474;28;20097;-64
2021/03/21 04:18:27;;;;;;;7.20;4.68;;;0.80;61.00;;;;;;5044001;28;20113;-64
2021/03/21 04:21:00;;;;;;;7.47;5.05;;;0.90;60.10;;;;;;5045960;28;20034;-64
2021/03/21 04:23:47;;;;;;;10.02;5.13;;;0.60;61.20;;;;;;5028749;28;20233;-63
2021/03/21 04:26:28;;;;;;;6.95;4.45;;;0.60;61.50;;;;;;5045253;28;20341;-63
2021/03/21 04:28:56;;;;;;;7.68;4.68;;;0.80;60.60;;;;;;5014122;28;20065;-64
2021/03/21 04:31:22;;;;;;;8.88;4.63;;;0.70;60.90;;;;;;5017965;28;20387;-64
2021/03/21 04:33:53;;;;;;;7.65;4.55;;;0.90;61.00;;;;;;5045121;28;20025;-63
2021/03/21 04:36:27;;;;;;;7.20;4.35;;;0.80;61.20;;;;;;5027534;28;20033;-64
2021/03/21 04:39:01;;;;;;;8.00;4.82;;;0.80;60.90;;;;;;5029306;28;20018;-64
2021/03/21 04:41:43;;;;;;;7.00;4.45;;;0.90;61.00;;;;;;5043943;28;20033;-64
2021/03/21 04:44:16;;;;;;;6.53;4.30;;;0.90;60.60;;;;;;5043407;28;20333;-64
2021/03/21 04:46:47;;;;;;;9.43;4.93;;;0.90;60.50;;;;;;5015754;28;20221;-63
2021/03/21 04:49:13;;;;;;;8.18;5.07;;;0.90;60.20;;;;;;5032775;28;20057;-64
2021/03/21 04:51:40;;;;;;;6.15;4.13;;;0.80;60.40;;;;;;5044662;28;20052;-64
2021/03/21 04:54:32;;;;;;;8.10;4.53;;;0.90;60.40;;;;;;5029007;28;20075;-64
2021/03/21 04:57:31;;;;;;;9.63;4.55;;;0.80;58.40;;;;;;5044313;28;20217;-64
2021/03/21 04:59:57;;;;;;;8.45;4.50;;;0.90;60.00;;;;;;5045341;28;20339;-64
2021/03/21 05:02:28;;;;;;;7.22;4.13;;;0.90;59.00;;;;;;5043359;28;20050;-64
2021/03/21 05:05:00;;;;;;;9.63;4.65;;;0.70;59.40;;;;;;5043365;28;20228;-64
2021/03/21 05:07:49;;;;;;;7.38;4.28;;;0.80;60.40;;;;;;5016868;28;20073;-64
2021/03/21 05:10:20;;;;;;;7.43;4.47;;;0.90;60.30;;;;;;5027450;28;20039;-64
2021/03/21 05:13:04;;;;;;;7.50;4.13;;;0.90;60.30;;;;;;5043324;28;20256;-64
2021/03/21 05:15:52;;;;;;;7.32;4.30;;;1.10;60.40;;;;;;5043060;28;20041;-64
2021/03/21 05:18:42;;;;;;;6.07;4.20;;;1.00;59.60;;;;;;5044284;28;20025;-64
2021/03/21 05:21:13;;;;;;;6.80;4.40;;;1.00;59.70;;;;;;5045851;28;20026;-64
2021/03/21 05:23:47;;;;;;;9.02;4.72;;;0.90;59.90;;;;;;5044858;28;20045;-64
2021/03/21 05:26:26;;;;;;;8.75;4.93;;;1.10;58.30;;;;;;5043379;28;20109;-64
2021/03/21 05:29:12;;;;;;;8.57;4.60;;;1.00;58.50;;;;;;5043182;28;20049;-64
2021/03/21 05:31:37;;;;;;;8.48;4.13;;;1.00;58.80;;;;;;5043940;28;20328;-63
2021/03/21 05:34:03;;;;;;;11.07;4.20;;;1.10;58.90;;;;;;5042625;28;20047;-64
2021/03/21 05:37:05;;;;;;;7.03;4.28;;;1.10;58.90;;;;;;5042665;28;20026;-64
2021/03/21 05:39:42;;;;;;;8.07;4.10;;;1.10;58.80;;;;;;5043856;28;20045;-64
2021/03/21 05:42:17;;;;;;;7.53;3.97;;;1.20;58.90;;;;;;5028782;28;20043;-64
2021/03/21 05:45:05;;;;;;;10.32;3.72;;;1.30;58.60;;;;;;5044392;28;20040;-64
2021/03/21 05:47:36;;;;;;;6.40;4.00;;;1.20;57.10;;;;;;5042946;28;20037;-64
2021/03/21 05:50:43;;;;;;;6.10;3.97;;;1.10;58.80;;;;;;5043616;28;20033;-63
2021/03/21 05:53:39;;;;;;;7.50;4.00;;;1.20;58.50;;;;;;5043328;28;20099;-64
2021/03/21 05:56:15;;;;;;;11.70;4.20;;;1.20;58.60;;;;;;5042221;28;20083;-64
2021/03/21 05:59:00;;;;;;;7.82;3.88;;;1.30;58.60;;;;;;5042328;28;20045;-64
2021/03/21 06:01:56;;;;;;;5.95;3.80;;;1.20;59.60;;;;;;5042105;28;20044;-64
2021/03/21 06:04:29;;;;;;;11.48;4.00;;;1.30;59.70;;;;;;5028000;28;20044;-64
2021/03/21 06:07:11;;;;;;;9.65;4.32;;;1.40;59.40;;;;;;5042181;28;20040;-64
2021/03/21 06:10:20;;;;;;;7.15;3.80;;;1.40;59.70;;;;;;5042307;28;20108;-63
2021/03/21 06:12:56;;;;;;;5.47;3.33;;;1.40;60.00;;;;;;5043239;28;20029;-64
2021/03/21 06:15:35;;;;;;;5.45;3.55;;;1.40;58.40;;;;;;5041736;28;20064;-63
2021/03/21 06:18:41;;;;;;;7.97;3.80;;;1.20;57.90;;;;;;5043799;28;20025;-63
2021/03/21 06:21:44;;;;;;;6.22;4.03;;;1.30;58.10;;;;;;4993570;28;20021;-64
2021/03/21 06:24:29;;;;;;;5.72;3.60;;;1.40;58.70;;;;;;5042553;28;20147;-67
2021/03/21 06:27:21;;;;;;;8.40;3.53;;;1.50;59.30;;;;;;5044934;28;20064;-63
2021/03/21 06:30:03;;;;;;;14.98;4.07;;;1.40;57.60;;;;;;5043738;28;20302;-64
2021/03/21 06:32:53;;;;;;;9.13;4.07;;;1.50;58.40;;;;;;5042181;28;20038;-64
2021/03/21 06:35:37;;;;;;;6.90;3.55;;;1.60;58.80;;;;;;5026385;28;20247;-64
2021/03/21 06:38:14;;;;;;;7.63;3.30;;;1.60;57.10;;;;;;5043113;28;20221;-64
2021/03/21 06:40:57;;;;;;;7.05;3.55;;;1.60;57.10;;;;;;5042621;28;20060;-64
2021/03/21 06:43:49;;;;;;;7.20;3.92;;;1.50;58.00;;;;;;5041517;28;20172;-64
2021/03/21 06:46:21;;;;;;;6.97;3.33;;;1.70;58.10;;;;;;5027226;28;20041;-64
2021/03/21 06:49:12;;;;;;;5.13;3.00;;;1.70;56.70;;;;;;5042516;28;20084;-64
2021/03/21 06:52:05;;;;;;;5.95;3.20;;;1.60;56.20;;;;;;5042667;28;20074;-64
2021/03/21 06:54:41;;;;;;;8.75;3.35;;;1.70;56.70;;;;;;5041593;28;20065;-63
2021/03/21 06:57:38;;;;;;;5.93;3.45;;;1.70;57.00;;;;;;5026770;28;20081;-63
2021/03/21 07:00:24;;;;;;;7.70;3.28;;;1.70;56.90;;;;;;5041893;28;20273;-63
2021/03/21 07:03:28;;;;;;;7.72;3.33;;;1.80;55.90;;;;;;5041570;28;20049;-63
2021/03/21 07:06:15;;;;;;;7.00;3.53;;;1.80;56.80;;;;;;5043587;28;20036;-63
2021/03/21 07:09:04;;;;;;;6.55;2.90;;;1.90;56.40;;;;;;5031399;28;20033;-63
2021/03/21 07:11:57;;;;;;;7.05;3.50;;;1.90;56.20;;;;;;5047024;28;20057;-64
2021/03/21 07:15:01;;;;;;;5.63;3.03;;;1.90;55.30;;;;;;5046863;28;20038;-63
2021/03/21 07:18:04;;;;;;;4.13;2.83;;;1.90;55.40;;;;;;5046515;28;20064;-63
2021/03/21 07:20:59;;;;;;;6.05;3.10;;;1.90;55.30;;;;;;5046466;28;20392;-64
2021/03/21 07:23:33;;;;;;;5.88;2.97;;;2.00;55.60;;;;;;5046610;28;20042;-63
2021/03/21 07:26:18;;;;;;;6.05;3.08;;;2.00;54.60;;;;;;5046281;28;20037;-63
2021/03/21 07:29:11;;;;;;;4.63;2.83;;;2.00;55.40;;;;;;5046404;28;20038;-64
2021/03/21 07:31:41;;;;;;;5.97;2.83;;;2.20;54.10;;;;;;5046099;28;20268;-63
2021/03/21 07:34:37;;;;;;;5.57;3.10;;;2.30;54.10;;;;;;5044818;28;20051;-64
2021/03/21 07:37:35;;;;;;;4.85;2.90;;;2.40;54.00;;;;;;5045952;28;20056;-63
2021/03/21 07:40:31;;;;;;;6.53;2.80;;;2.30;53.90;;;;;;5044752;28;20041;-64
2021/03/21 07:43:01;;;;;;;4.53;3.17;;;2.30;55.30;;;;;;5045510;28;20117;-64
2021/03/21 07:46:08;;;;;;;6.20;3.05;;;2.30;52.40;;;;;;5044823;28;20048;-64
2021/03/21 07:48:53;;;;;;;6.28;3.22;;;2.40;53.60;;;;;;4975485;28;20037;-65
2021/03/21 07:51:41;;;;;;;5.75;3.08;;;2.40;52.80;;;;;;5029042;28;20084;-65
2021/03/21 07:54:26;;;;;;;6.13;2.83;;;2.50;53.10;;;;;;5030804;28;20029;-64
2021/03/21 07:57:17;;;;;;;7.50;3.30;;;2.50;52.10;;;;;;5030553;28;20029;-64
2021/03/21 07:59:43;;;;;;;;;;;2.70;52.70;;;;;;5035149;28;20030;-63
2021/03/21 08:02:11;;;;;;;7.90;2.65;;;2.70;53.60;;;;;;5044283;28;19955;-64
2021/03/21 08:04:46;;;;;;;6.55;3.28;;;2.70;51.90;;;;;;5028244;28;20037;-66
2021/03/21 08:07:17;;;;;;;5.60;3.05;;;2.60;52.40;;;;;;5044674;28;20041;-68
2021/03/21 08:09:42;;;;;;;6.43;3.10;;;2.50;53.00;;;;;;5045345;28;20099;-64
2021/03/21 08:12:20;;;;;;;4.97;3.00;;;2.60;53.30;;;;;;5045868;28;20251;-64
2021/03/21 08:14:49;;;;;;;4.32;2.78;;;2.60;53.20;;;;;;5046142;28;20103;-66
2021/03/21 08:17:37;;;;;;;5.93;2.90;;;2.60;52.80;;;;;;5045446;28;20044;-65
2021/03/21 08:20:12;;;;;;;5.38;3.20;;;2.60;51.70;;;;;;5027912;28;20048;-65
2021/03/21 08:22:38;;;;;;;6.13;3.03;;;2.70;53.20;;;;;;5043736;28;20046;-66
2021/03/21 08:25:20;;;;;;;5.97;3.58;;;2.60;52.60;;;;;;5044071;28;20101;-64
2021/03/21 08:27:45;;;;;;;8.13;3.50;;;2.70;52.70;;;;;;5045108;28;20045;-66
2021/03/21 08:30:12;;;;;;;6.00;2.95;;;2.50;52.40;;;;;;5044165;28;20048;-66
2021/03/21 08:32:59;;;;;;;5.95;2.92;;;2.60;53.70;;;;;;5046464;28;20044;-66
2021/03/21 08:35:33;;;;;;;7.50;3.50;;;2.60;53.80;;;;;;5045101;28;20041;-65
2021/03/21 08:38:16;;;;;;;5.70;3.20;;;2.60;52.70;;;;;;5043954;28;20025;-65
2021/03/21 08:40:42;;;;;;;6.28;3.45;;;2.70;53.70;;;;;;5043762;28;20045;-65
2021/03/21 08:43:19;;;;;;;5.85;3.20;;;2.80;53.40;;;;;;5043570;28;20044;-65
2021/03/21 08:46:06;;;;;;;7.32;3.40;;;2.80;52.80;;;;;;5043825;28;20325;-66
2021/03/21 08:48:38;;;;;;;6.15;3.10;;;2.80;53.90;;;;;;5043954;28;20320;-66
2021/03/21 08:51:04;;;;;;;4.32;3.00;;;2.90;55.10;;;;;;5045432;28;20017;-64
2021/03/21 08:53:52;;;;;;;5.68;3.25;;;2.90;54.30;;;;;;5044784;28;20037;-63
2021/03/21 08:56:35;;;;;;;7.75;3.42;;;2.90;52.20;;;;;;5044548;28;20040;-65
2021/03/21 08:59:29;;;;;;;4.95;3.05;;;2.80;52.50;;;;;;5043424;28;20041;-66
2021/03/21 09:02:01;;;;;;;6.57;3.22;;;2.90;52.50;;;;;;5034012;28;20113;-65
2021/03/21 09:04:27;;;;;;;5.55;3.45;;;2.90;53.20;;;;;;5017293;28;20038;-64
2021/03/21 09:06:52;;;;;;;4.93;2.80;;;2.80;52.00;;;;;;5024482;28;20034;-65
2021/03/21 09:09:33;;;;;;;5.20;3.30;;;2.70;52.60;;;;;;5024296;28;20030;-66
2021/03/21 09:12:00;;;;;;;4.57;2.90;;;2.90;52.10;;;;;;5045686;28;20057;-67
2021/03/21 09:14:32;;;;;;;7.10;3.55;;;2.90;51.40;;;;;;5043470;28;20060;-65
2021/03/21 09:17:19;;;;;;;6.45;3.42;;;3.00;52.80;;;;;;5042949;28;20207;-68
2021/03/21 09:19:45;;;;;;;4.68;2.97;;;2.90;51.60;;;;;;5043363;28;20032;-66
2021/03/21 09:22:31;;;;;;;4.15;2.72;;;2.90;51.20;;;;;;5042688;28;20096;-66
2021/03/21 09:25:07;;;;;;;8.93;3.30;;;3.00;52.50;;;;;;5042655;28;20068;-65
2021/03/21 09:27:37;;;;;;;7.05;2.90;;;3.10;52.40;;;;;;5043744;28;20093;-66
2021/03/21 09:30:19;;;;;;;5.43;3.25;;;3.00;52.60;;;;;;5027191;28;20029;-67
2021/03/21 09:32:46;;;;;;;5.32;3.13;;;2.90;50.70;;;;;;5044598;28;20121;-68
2021/03/21 09:35:18;;;;;;;6.90;3.28;;;2.90;51.10;;;;;;5026647;28;20046;-68
2021/03/21 09:37:43;;;;;;;7.82;3.55;;;3.00;51.30;;;;;;5043612;28;20079;-66
2021/03/21 09:40:37;;;;;;;8.07;3.30;;;2.90;50.60;;;;;;5026172;28;20096;-66
2021/03/21 09:43:03;;;;;;;5.88;3.40;;;3.10;52.30;;;;;;5043750;28;20105;-67
2021/03/21 09:45:30;;;;;;;8.43;3.50;;;3.10;51.20;;;;;;5025899;28;20080;-66
2021/03/21 09:48:00;;;;;;;5.78;3.40;;;3.00;50.90;;;;;;5045096;28;20257;-68
2021/03/21 09:50:46;;;;;;;7.20;3.40;;;3.00;51.70;;;;;;5026419;28;20333;-68
2021/03/21 09:53:36;;;;;;;5.75;3.42;;;3.20;52.10;;;;;;5028607;28;20037;-68
2021/03/21 09:56:19;;;;;;;5.93;3.28;;;3.20;51.40;;;;;;5042247;28;20044;-68
2021/03/21 09:59:05;;;;;;;5.65;3.40;;;3.10;50.40;;;;;;5027176;28;20060;-68
2021/03/21 10:01:41;;;;;;;6.97;3.40;;;3.20;51.60;;;;;;5041880;28;20036;-67
2021/03/21 10:04:29;;;;;;;7.55;4.20;;;3.30;52.60;;;;;;5010113;28;20052;-68
2021/03/21 10:06:56;;;;;;;6.28;3.22;;;3.30;51.30;;;;;;5026031;28;20029;-68
2021/03/21 10:09:23;;;;;;;5.68;3.42;;;3.40;52.10;;;;;;5042071;28;20037;-67
2021/03/21 10:11:51;;;;;;;5.55;2.90;;;3.40;51.70;;;;;;5010775;28;20259;-68
2021/03/21 10:14:25;;;;;;;9.00;3.88;;;3.30;51.50;;;;;;5026053;28;20104;-68
2021/03/21 10:16:52;;;;;;;6.22;3.42;;;3.40;52.80;;;;;;5042930;28;20037;-67
2021/03/21 10:19:54;;;;;;;6.07;3.53;;;3.40;52.50;;;;;;5041607;28;20044;-67
2021/03/21 10:22:26;;;;;;;8.57;3.70;;;3.40;52.70;;;;;;5042898;28;20043;-68
2021/03/21 10:24:58;;;;;;;9.02;3.80;;;3.50;51.60;;;;;;5042652;28;20082;-68
2021/03/21 10:27:34;;;;;;;9.23;3.60;;;3.50;52.10;;;;;;5025555;28;20028;-68
2021/03/21 10:30:19;;;;;;;7.72;3.70;;;3.40;53.30;;;;;;5043578;28;20034;-67
2021/03/21 10:33:00;;;;;;;7.07;3.22;;;3.60;53.10;;;;;;5043636;28;20352;-67
2021/03/21 10:35:25;;;;;;;5.63;3.42;;;3.50;54.10;;;;;;5043101;28;20043;-68
2021/03/21 10:37:57;;;;;;;7.65;3.25;;;3.50;52.90;;;;;;5042600;28;20037;-68
2021/03/21 10:40:23;;;;;;;11.35;3.47;;;3.60;53.60;;;;;;5041301;28;20037;-68
2021/03/21 10:42:53;;;;;;;6.80;3.72;;;3.50;52.20;;;;;;5042242;28;20041;-67
2021/03/21 10:45:34;;;;;;;6.88;3.60;;;3.40;53.20;;;;;;5025323;28;20037;-68
2021/03/21 10:48:14;;;;;;;6.20;3.47;;;3.50;54.20;;;;;;5044053;28;20060;-67
2021/03/21 10:50:46;;;;;;;5.55;3.47;;;3.60;53.60;;;;;;5043250;28;20316;-67
2021/03/21 10:53:19;;;;;;;6.28;3.20;;;3.60;54.20;;;;;;5042553;28;20264;-68
2021/03/21 10:56:13;;;;;;;6.65;3.20;;;3.70;54.10;;;;;;5041288;28;20324;-68
2021/03/21 10:58:40;;;;;;;5.68;3.47;;;3.70;53.40;;;;;;5041426;28;20029;-68
2021/03/21 11:01:25;;;;;;;7.35;3.40;;;3.60;52.90;;;;;;5041307;28;20045;-64
2021/03/21 11:03:57;;;;;;;6.28;3.20;;;3.40;53.30;;;;;;5042625;28;20045;-64
2021/03/21 11:06:23;;;;;;;7.57;3.20;;;3.40;53.30;;;;;;5042270;28;20038;-65
2021/03/21 11:08:49;;;;;;;7.53;3.63;;;3.40;55.40;;;;;;5026255;28;20022;-64
2021/03/21 11:11:34;;;;;;;6.43;3.13;;;3.50;53.50;;;;;;5041307;28;20038;-64
2021/03/21 11:14:14;;;;;;;6.78;3.35;;;3.70;54.10;;;;;;5025226;28;20053;-65
2021/03/21 11:16:40;;;;;;;7.30;3.83;;;3.70;54.40;;;;;;5042568;28;20095;-65
2021/03/21 11:19:08;;;;;;;6.53;3.42;;;3.80;54.00;;;;;;5041018;28;20037;-67
2021/03/21 11:21:34;;;;;;;7.90;3.53;;;3.90;55.10;;;;;;5025096;28;20088;-65
2021/03/21 11:24:02;;;;;;;6.40;3.30;;;3.90;53.60;;;;;;5043052;28;20037;-66
2021/03/21 11:26:31;;;;;;;7.25;3.72;;;3.90;54.80;;;;;;5041196;28;20048;-66
2021/03/21 11:29:07;;;;;;;8.93;4.20;;;4.30;54.70;;;;;;5040869;28;20355;-68
2021/03/21 11:31:43;;;;;;;12.20;3.50;;;4.60;54.30;;;;;;5042197;28;20060;-68
2021/03/21 11:34:43;;;;;;;7.70;4.38;;;4.90;52.30;;;;;;5025340;28;20029;-66
2021/03/21 11:37:19;;;;;;;6.38;3.85;;;5.30;49.90;;;;;;4989152;28;20029;-67
2021/03/21 11:39:51;;;;;;;7.38;3.90;;;5.20;50.70;;;;;;5041037;28;20030;-68
2021/03/21 11:42:39;;;;;;;9.85;3.83;;;5.30;50.80;;;;;;5024338;28;20217;-68
2021/03/21 11:45:20;;;;;;;8.15;3.95;;;5.40;51.50;;;;;;5022663;28;20030;-67
2021/03/21 11:47:48;;;;;;;9.30;4.22;;;5.40;50.90;;;;;;5021662;28;20034;-66
2021/03/21 11:50:21;;;;;;;5.80;3.60;;;5.50;51.10;;;;;;5021619;28;20038;-66
2021/03/21 11:52:47;;;;;;;9.68;4.10;;;5.40;51.70;;;;;;5042522;28;20049;-66
2021/03/21 11:55:17;;;;;;;10.38;4.30;;;5.20;50.90;;;;;;5044589;28;20210;-66
2021/03/21 11:57:48;;;;;;;8.20;4.33;;;5.20;51.40;;;;;;5044404;28;20075;-66
2021/03/21 12:00:23;;;;;;;8.93;4.38;;;5.10;51.70;;;;;;5044303;28;20071;-67
2021/03/21 12:03:08;;;;;;;8.23;4.43;;;4.90;52.60;;;;;;5045838;28;20119;-66
2021/03/21 12:05:35;;;;;;;7.78;4.50;;;4.80;52.10;;;;;;5030352;28;20104;-67
2021/03/21 12:08:08;;;;;;;10.38;4.50;;;4.70;52.00;;;;;;5044038;28;20037;-67
2021/03/21 12:10:36;;;;;;;7.72;4.28;;;4.40;51.60;;;;;;5044098;28;20034;-67
2021/03/21 12:13:36;;;;;;;8.07;4.10;;;4.50;52.50;;;;;;5043915;28;20037;-67
2021/03/21 12:16:04;;;;;;;7.88;4.50;;;4.40;52.10;;;;;;5045452;28;20301;-66
2021/03/21 12:18:31;;;;;;;7.70;4.10;;;4.40;53.30;;;;;;5044015;28;20059;-65
2021/03/21 12:21:16;;;;;;;9.35;3.90;;;4.40;53.10;;;;;;5045951;28;20033;-65
2021/03/21 12:23:49;;;;;;;9.73;4.47;;;4.40;53.30;;;;;;5045254;28;20228;-64
2021/03/21 12:26:22;;;;;;;6.70;4.00;;;4.20;53.60;;;;;;5044382;28;20029;-64
2021/03/21 12:28:49;;;;;;;9.10;4.45;;;4.20;54.00;;;;;;5045563;28;20108;-68
2021/03/21 12:31:17;;;;;;;11.77;4.75;;;4.30;54.40;;;;;;5043966;28;20033;-65
2021/03/21 12:33:44;;;;;;;9.30;4.20;;;4.40;54.30;;;;;;5043711;28;20033;-67
2021/03/21 12:36:18;;;;;;;9.75;4.45;;;4.50;53.50;;;;;;5046542;28;20076;-65
2021/03/21 12:38:47;;;;;;;9.85;4.15;;;4.40;55.70;;;;;;5045450;28;20040;-67
2021/03/21 12:41:24;;;;;;;10.18;4.55;;;4.40;54.10;;;;;;5043678;28;20029;-65
2021/03/21 12:44:12;;;;;;;8.35;4.38;;;4.30;55.50;;;;;;5043589;28;20041;-63
2021/03/21 12:46:53;;;;;;;9.98;4.90;;;4.30;55.40;;;;;;5044733;28;20041;-66
2021/03/21 12:49:44;;;;;;;7.63;4.70;;;4.30;54.70;;;;;;5028971;28;20188;-67
2021/03/21 12:52:21;;;;;;;7.93;4.25;;;4.40;55.90;;;;;;5044688;28;20087;-66
2021/03/21 12:54:47;;;;;;;8.77;4.28;;;4.40;55.00;;;;;;5044461;28;20045;-67
2021/03/21 12:57:13;;;;;;;16.98;5.03;;;4.30;56.70;;;;;;5044203;28;20037;-67
2021/03/21 12:59:47;;;;;;;13.55;3.75;;;4.10;56.50;;;;;;5012382;28;20033;-66
2021/03/21 13:02:20;;;;;;;9.38;4.57;;;4.30;56.80;;;;;;5044450;28;20053;-66
2021/03/21 13:04:45;;;;;;;7.57;4.63;;;4.20;57.10;;;;;;5041963;28;20105;-66
2021/03/21 13:07:12;;;;;;;15.50;5.22;;;4.10;57.80;;;;;;5043463;28;20060;-66
2021/03/21 13:09:38;;;;;;;10.13;4.82;;;4.20;58.30;;;;;;5043110;28;20209;-66
2021/03/21 13:12:04;;;;;;;10.75;5.30;;;4.20;57.90;;;;;;5045986;28;20040;-66
2021/03/21 13:14:30;;;;;;;9.63;4.88;;;4.20;58.80;;;;;;5044398;28;20217;-66
2021/03/21 13:16:55;;;;;;;11.48;5.47;;;4.20;58.50;;;;;;5043979;28;20037;-65
2021/03/21 13:19:21;;;;;;;9.85;5.25;;;4.10;59.80;;;;;;5044011;28;20093;-64
2021/03/21 13:21:48;;;;;;;9.93;5.03;;;4.20;60.10;;;;;;5043195;28;20060;-65
2021/03/21 13:24:14;;;;;;;11.75;5.57;;;4.20;60.70;;;;;;5044112;28;20037;-65
2021/03/21 13:26:39;;;;;;;14.68;5.57;;;4.10;60.30;;;;;;5044349;28;20080;-65
2021/03/21 13:29:05;;;;;;;11.05;5.47;;;4.10;60.40;;;;;;5043646;28;20340;-65
2021/03/21 13:31:31;;;;;;;10.95;5.43;;;4.00;60.30;;;;;;5043628;28;20049;-65
2021/03/21 13:33:57;;;;;;;12.18;5.90;;;4.00;61.00;;;;;;5037300;28;20068;-65
2021/03/21 13:36:23;;;;;;;12.88;5.80;;;3.90;59.80;;;;;;5024209;28;20021;-65
2021/03/21 13:38:48;;;;;;;11.48;5.63;;;3.90;59.70;;;;;;5044696;28;20186;-64
2021/03/21 13:41:14;;;;;;;10.38;5.00;;;3.80;60.20;;;;;;5043933;28;20040;-64